Weldon, Arkansas
Current Conditions -  °F | °C
As of 10:56 PM on Sunday 21 Dec 2014 (Local Time) from KM19 Reporting Station
Light Rain Light Rain  
Wind Chill: 39°   Ceiling: 3800
Heat Index: 43°   Visibility: 4mi
Dew Point: 40°   Wind: 6mph
Humidity: 89%   Direction: 70°ENE
Pressure: 29.92"   Gusts: NA
Location:  35.5678°N, 91.2073°W
Report Text: KM19 220456Z AUTO 07005KT 4SM -RA BR OVC038 06/04 A2992 RMK AO2 T00610044 RAB0358 P0000 SLP133
Loading
Personal Weather Stations






























Interactive Weather Map New forecast layout! Learn more

10-Day Weather Forecast

Advertisements
Track Severe Weather on mobile